Time;durP1;ratioP1;P1;durP2;ratioP2;P2;SDS_P1;SDS_P2;PMS_P1;PMS_P2;Temp;Humidity;BMP_temperature;BMP_pressure;BME280_temperature;BME280_humidity;BME280_pressure;Samples;Min_cycle;Max_cycle;Signal;HPM_P1;HPM_P2
2024/01/14 00:01:57;;;;;;;;;;;;;;;;;;5144732;28;19956;-57
2024/01/14 00:04:28;;;;;;;;;;;;;;;;;;5144153;28;19930;-57
2024/01/14 00:06:59;;;;;;;;;;;;;;;;;;5159943;28;19926;-57
2024/01/14 00:09:30;;;;;;;;;;;;;;;;;;5158781;28;20286;-57
2024/01/14 00:12:02;;;;;;;;;;;;;;;;;;5174111;28;19938;-57
2024/01/14 00:14:33;;;;;;;;;;;;;;;;;;5153345;28;19921;-58
2024/01/14 00:17:04;;;;;;;;;;;;;;;;;;5144132;28;19925;-58
2024/01/14 00:19:35;;;;;;;;;;;;;;;;;;5160443;28;20453;-57
2024/01/14 00:22:06;;;;;;;;;;;;;;;;;;5144732;28;19934;-57
2024/01/14 00:24:37;;;;;;;;;;;;;;;;;;5160600;28;19922;-58
2024/01/14 00:27:08;;;;;;;;;;;;;;;;;;5144430;28;20275;-58
2024/01/14 00:29:39;;;;;;;;;;;;;;;;;;5160867;28;19969;-57
2024/01/14 00:32:10;;;;;;;;;;;;;;;;;;5159535;28;19927;-58
2024/01/14 00:34:41;;;;;;;;;;;;;;;;;;5158598;28;19923;-58
2024/01/14 00:37:12;;;;;;;;;;;;;;;;;;5160642;28;19922;-58
2024/01/14 00:39:43;;;;;;;;;;;;;;;;;;5144730;28;19928;-56
2024/01/14 00:42:14;;;;;;;;;;;;;;;;;;5172939;28;19938;-57
2024/01/14 00:44:46;;;;;;;;;;;;;;;;;;5146807;28;19926;-58
2024/01/14 00:47:17;;;;;;;;;;;;;;;;;;5160206;28;20266;-57
2024/01/14 00:49:48;;;;;;;;;;;;;;;;;;5160114;28;20009;-58
2024/01/14 00:52:19;;;;;;;;;;;;;;;;;;5143763;28;20004;-58
2024/01/14 00:54:50;;;;;;;;;;;;;;;;;;5127740;28;19928;-58
2024/01/14 00:57:21;;;;;;;;;;;;;;;;;;5160015;28;19926;-58
2024/01/14 00:59:52;;;;;;;;;;;;;;;;;;5159651;28;20338;-59
2024/01/14 01:02:23;;;;;;;;;;;;;;;;;;5160066;28;20004;-59
2024/01/14 01:04:54;;;;;;;;;;;;;;;;;;5159779;28;20300;-59
2024/01/14 01:07:25;;;;;;;;;;;;;;;;;;5158467;28;19922;-59
2024/01/14 01:09:56;;;;;;;;;;;;;;;;;;5152782;28;20573;-59
2024/01/14 01:12:27;;;;;;;;;;;;;;;;;;5150693;28;19988;-59
2024/01/14 01:14:58;;;;;;;;;;;;;;;;;;5142706;28;19926;-59
2024/01/14 01:17:29;;;;;;;;;;;;;;;;;;5160383;28;20017;-58
2024/01/14 01:20:00;;;;;;;;;;;;;;;;;;5143121;28;19922;-59
2024/01/14 01:22:31;;;;;;;;;;;;;;;;;;5162967;28;19929;-59
2024/01/14 01:25:02;;;;;;;;;;;;;;;;;;5159046;28;19945;-59
2024/01/14 01:27:33;;;;;;;;;;;;;;;;;;5132362;28;19926;-59
2024/01/14 01:30:05;;;;;;;;;;;;;;;;;;5143089;28;19969;-59
2024/01/14 01:32:36;;;;;;;;;;;;;;;;;;5159296;28;20005;-59
2024/01/14 01:35:07;;;;;;;;;;;;;;;;;;5143031;28;19934;-58
2024/01/14 01:37:38;;;;;;;;;;;;;;;;;;5158878;28;19940;-59
2024/01/14 01:40:09;;;;;;;;;;;;;;;;;;5159224;28;20015;-58
2024/01/14 01:42:40;;;;;;;;;;;;;;;;;;5159451;28;19922;-59
2024/01/14 01:45:12;;;;;;;;;;;;;;;;;;5158997;28;19922;-59
2024/01/14 01:47:43;;;;;;;;;;;;;;;;;;5156243;28;19949;-58
2024/01/14 01:50:13;;;;;;;;;;;;;;;;;;5142305;28;19922;-59
2024/01/14 01:52:44;;;;;;;;;;;;;;;;;;5164421;28;19983;-58
2024/01/14 01:55:15;;;;;;;;;;;;;;;;;;5159227;28;19926;-59
2024/01/14 01:57:47;;;;;;;;;;;;;;;;;;5158947;28;19926;-59
2024/01/14 02:00:18;;;;;;;;;;;;;;;;;;5142839;28;19922;-59
2024/01/14 02:02:49;;;;;;;;;;;;;;;;;;5163667;28;20020;-59
2024/01/14 02:05:20;;;;;;;;;;;;;;;;;;5138887;28;19930;-59
2024/01/14 02:07:51;;;;;;;;;;;;;;;;;;5155591;28;19942;-58
2024/01/14 02:10:22;;;;;;;;;;;;;;;;;;5150844;28;20257;-58
2024/01/14 02:12:53;;;;;;;;;;;;;;;;;;5158054;28;19980;-57
2024/01/14 02:15:24;;;;;;;;;;;;;;;;;;5142594;28;19984;-57
2024/01/14 02:17:55;;;;;;;;;;;;;;;;;;5142495;28;19926;-58
2024/01/14 02:20:26;;;;;;;;;;;;;;;;;;5146660;28;20369;-57
2024/01/14 02:22:57;;;;;;;;;;;;;;;;;;5158913;28;19933;-56
2024/01/14 02:25:29;;;;;;;;;;;;;;;;;;5126624;28;20267;-56
2024/01/14 02:28:00;;;;;;;;;;;;;;;;;;5164136;28;19922;-58
2024/01/14 02:30:32;;;;;;;;;;;;;;;;;;5150790;28;20300;-57
2024/01/14 02:33:03;;;;;;;;;;;;;;;;;;5158129;28;20429;-57
2024/01/14 02:35:34;;;;;;;;;;;;;;;;;;5153258;28;20392;-57
2024/01/14 02:38:05;;;;;;;;;;;;;;;;;;5142119;28;19926;-58
2024/01/14 02:40:36;;;;;;;;;;;;;;;;;;5138350;28;20388;-57
2024/01/14 02:43:07;;;;;;;;;;;;;;;;;;5158758;28;20308;-57
2024/01/14 02:45:38;;;;;;;;;;;;;;;;;;5158141;28;19961;-57
2024/01/14 02:48:09;;;;;;;;;;;;;;;;;;5158640;28;19932;-58
2024/01/14 02:50:40;;;;;;;;;;;;;;;;;;5163407;28;20451;-58
2024/01/14 02:53:11;;;;;;;;;;;;;;;;;;5147377;28;20034;-58
2024/01/14 02:55:42;;;;;;;;;;;;;;;;;;5157467;28;19978;-57
2024/01/14 02:58:13;;;;;;;;;;;;;;;;;;5125831;28;19922;-57
2024/01/14 03:00:45;;;;;;;;;;;;;;;;;;5161692;28;19957;-57
2024/01/14 03:03:16;;;;;;;;;;;;;;;;;;5142101;28;19964;-57
2024/01/14 03:05:47;;;;;;;;;;;;;;;;;;5142563;28;20000;-57
2024/01/14 03:08:18;;;;;;;;;;;;;;;;;;5153577;28;19919;-57
2024/01/14 03:10:49;;;;;;;;;;;;;;;;;;5158358;28;19922;-58
2024/01/14 03:13:20;;;;;;;;;;;;;;;;;;5157807;28;20028;-58
2024/01/14 03:15:52;;;;;;;;;;;;;;;;;;5156981;28;19926;-57
2024/01/14 03:18:23;;;;;;;;;;;;;;;;;;5147203;28;20005;-58
2024/01/14 03:20:53;;;;;;;;;;;;;;;;;;5161218;28;20488;-57
2024/01/14 03:23:24;;;;;;;;;;;;;;;;;;5160684;28;20017;-57
2024/01/14 03:25:55;;;;;;;;;;;;;;;;;;5161804;28;19926;-58
2024/01/14 03:28:26;;;;;;;;;;;;;;;;;;5164696;28;19922;-58
2024/01/14 03:30:57;;;;;;;;;;;;;;;;;;5161798;28;20052;-58
2024/01/14 03:33:28;;;;;;;;;;;;;;;;;;5157364;28;20006;-58
2024/01/14 03:36:00;;;;;;;;;;;;;;;;;;5157878;28;20390;-58
2024/01/14 03:38:31;;;;;;;;;;;;;;;;;;5162382;28;19922;-58
2024/01/14 03:41:02;;;;;;;;;;;;;;;;;;5147080;28;20048;-59
2024/01/14 03:43:33;;;;;;;;;;;;;;;;;;5165280;28;20293;-59
2024/01/14 03:46:04;;;;;;;;;;;;;;;;;;5162952;28;19922;-59
2024/01/14 03:48:35;;;;;;;;;;;;;;;;;;5145531;28;20313;-58
2024/01/14 03:51:06;;;;;;;;;;;;;;;;;;5160484;28;19946;-57
2024/01/14 03:53:37;;;;;;;;;;;;;;;;;;5162540;28;19965;-57
2024/01/14 03:56:08;;;;;;;;;;;;;;;;;;5140669;28;19923;-58
2024/01/14 03:58:39;;;;;;;;;;;;;;;;;;5172434;28;19922;-57
2024/01/14 04:01:10;;;;;;;;;;;;;;;;;;5143390;28;19966;-58
2024/01/14 04:03:41;;;;;;;;;;;;;;;;;;5137623;28;20016;-58
2024/01/14 04:06:12;;;;;;;;;;;;;;;;;;5168031;28;19970;-57
2024/01/14 04:08:43;;;;;;;;;;;;;;;;;;5115633;28;19954;-57
2024/01/14 04:11:14;;;;;;;;;;;;;;;;;;5153656;28;19930;-57
2024/01/14 04:13:45;;;;;;;;;;;;;;;;;;5144287;28;19937;-57
2024/01/14 04:16:16;;;;;;;;;;;;;;;;;;5137725;28;19926;-58
2024/01/14 04:18:47;;;;;;;;;;;;;;;;;;5160410;28;20381;-58
2024/01/14 04:21:18;;;;;;;;;;;;;;;;;;5144643;28;19922;-57
2024/01/14 04:23:49;;;;;;;;;;;;;;;;;;5146101;28;19929;-57
2024/01/14 04:26:20;;;;;;;;;;;;;;;;;;5165902;28;19933;-57
2024/01/14 04:28:51;;;;;;;;;;;;;;;;;;5160531;28;19922;-58
2024/01/14 04:31:22;;;;;;;;;;;;;;;;;;5167124;28;20029;-58
2024/01/14 04:33:53;;;;;;;;;;;;;;;;;;5148702;28;20318;-57
2024/01/14 04:36:24;;;;;;;;;;;;;;;;;;5143472;28;20032;-57
2024/01/14 04:38:55;;;;;;;;;;;;;;;;;;5127884;28;19934;-58
2024/01/14 04:41:26;;;;;;;;;;;;;;;;;;5161196;28;19922;-57
2024/01/14 04:43:57;;;;;;;;;;;;;;;;;;5160204;28;19926;-57
2024/01/14 04:46:28;;;;;;;;;;;;;;;;;;5149100;28;20013;-57
2024/01/14 04:48:59;;;;;;;;;;;;;;;;;;5158813;28;20012;-57
2024/01/14 04:51:30;;;;;;;;;;;;;;;;;;5163915;28;20000;-57
2024/01/14 04:54:05;;;;;;;;;;;;;;;;;;5143933;28;19929;-58
2024/01/14 04:56:36;;;;;;;;;;;;;;;;;;5159980;28;20006;-57
2024/01/14 04:59:07;;;;;;;;;;;;;;;;;;5163371;28;20370;-57
2024/01/14 05:01:38;;;;;;;;;;;;;;;;;;5164645;28;19926;-58
2024/01/14 05:04:09;;;;;;;;;;;;;;;;;;5160379;28;19945;-58
2024/01/14 05:06:40;;;;;;;;;;;;;;;;;;5159365;28;19929;-58
2024/01/14 05:09:11;;;;;;;;;;;;;;;;;;5163482;28;19926;-58
2024/01/14 05:11:42;;;;;;;;;;;;;;;;;;5159070;28;20293;-58
2024/01/14 05:14:13;;;;;;;;;;;;;;;;;;5158990;28;20412;-58
2024/01/14 05:16:44;;;;;;;;;;;;;;;;;;5159179;28;19949;-58
2024/01/14 05:19:15;;;;;;;;;;;;;;;;;;5158298;28;20438;-58
2024/01/14 05:21:46;;;;;;;;;;;;;;;;;;5158864;28;19923;-59
2024/01/14 05:24:17;;;;;;;;;;;;;;;;;;5114900;28;19926;-59
2024/01/14 05:26:48;;;;;;;;;;;;;;;;;;5160466;28;19922;-59
2024/01/14 05:29:19;;;;;;;;;;;;;;;;;;5157742;28;19930;-59
2024/01/14 05:31:50;;;;;;;;;;;;;;;;;;5125033;28;19969;-59
2024/01/14 05:34:21;;;;;;;;;;;;;;;;;;5149069;28;20017;-59
2024/01/14 05:36:52;;;;;;;;;;;;;;;;;;5155915;28;19953;-59
2024/01/14 05:39:25;;;;;;;;;;;;;;;;;;5149904;28;19977;-57
2024/01/14 05:41:56;;;;;;;;;;;;;;;;;;5158094;28;20326;-57
2024/01/14 05:44:27;;;;;;;;;;;;;;;;;;5165487;28;19929;-56
2024/01/14 05:46:58;;;;;;;;;;;;;;;;;;5165101;28;19975;-57
2024/01/14 05:49:29;;;;;;;;;;;;;;;;;;5142243;28;19991;-57
2024/01/14 05:52:00;;;;;;;;;;;;;;;;;;5154326;28;19927;-58
2024/01/14 05:54:31;;;;;;;;;;;;;;;;;;5145275;28;20277;-56
2024/01/14 05:57:02;;;;;;;;;;;;;;;;;;5158042;28;19926;-56
2024/01/14 05:59:33;;;;;;;;;;;;;;;;;;5158279;28;20384;-57
2024/01/14 06:02:04;;;;;;;;;;;;;;;;;;5158276;28;19922;-56
2024/01/14 06:04:35;;;;;;;;;;;;;;;;;;5174197;28;19922;-57
2024/01/14 06:07:06;;;;;;;;;;;;;;;;;;5125176;28;19929;-56
2024/01/14 06:09:37;;;;;;;;;;;;;;;;;;5158124;28;19929;-56
2024/01/14 06:12:08;;;;;;;;;;;;;;;;;;5157864;28;19926;-56
2024/01/14 06:14:39;;;;;;;;;;;;;;;;;;5157956;28;19933;-56
2024/01/14 06:17:10;;;;;;;;;;;;;;;;;;5142377;28;19929;-56
2024/01/14 06:19:42;;;;;;;;;;;;;;;;;;5141881;28;19922;-56
2024/01/14 06:22:13;;;;;;;;;;;;;;;;;;5158176;28;20013;-56
2024/01/14 06:24:44;;;;;;;;;;;;;;;;;;5157831;28;20132;-57
2024/01/14 06:27:15;;;;;;;;;;;;;;;;;;5157782;28;19933;-57
2024/01/14 06:29:46;;;;;;;;;;;;;;;;;;5156831;28;19976;-57
2024/01/14 06:32:17;;;;;;;;;;;;;;;;;;5157676;28;19926;-58
2024/01/14 06:34:48;;;;;;;;;;;;;;;;;;5125732;28;19926;-58
2024/01/14 06:37:19;;;;;;;;;;;;;;;;;;5157601;28;19960;-58
2024/01/14 06:39:50;;;;;;;;;;;;;;;;;;5142271;28;19926;-57
2024/01/14 06:42:22;;;;;;;;;;;;;;;;;;5152305;28;19948;-58
2024/01/14 06:44:53;;;;;;;;;;;;;;;;;;5153567;28;19922;-58
2024/01/14 06:47:24;;;;;;;;;;;;;;;;;;5108420;28;19944;-56
2024/01/14 06:49:55;;;;;;;;;;;;;;;;;;5171742;28;19926;-56
2024/01/14 06:52:26;;;;;;;;;;;;;;;;;;5133581;28;20285;-56
2024/01/14 06:54:57;;;;;;;;;;;;;;;;;;5161094;28;19976;-56
2024/01/14 06:57:28;;;;;;;;;;;;;;;;;;5158738;28;20009;-57
2024/01/14 06:59:59;;;;;;;;;;;;;;;;;;5161343;28;19926;-56
2024/01/14 07:02:30;;;;;;;;;;;;;;;;;;5148434;28;19965;-57
2024/01/14 07:05:03;;;;;;;;;;;;;;;;;;5163276;28;19968;-56
2024/01/14 07:07:34;;;;;;;;;;;;;;;;;;5135601;28;21554;-58
2024/01/14 07:10:04;;;;;;;;;;;;;;;;;;5160957;28;20008;-56
2024/01/14 07:12:35;;;;;;;;;;;;;;;;;;5166062;28;20407;-59
2024/01/14 07:15:06;;;;;;;;;;;;;;;;;;5161668;28;19922;-58
2024/01/14 07:17:37;;;;;;;;;;;;;;;;;;5173361;28;19930;-58
2024/01/14 07:20:08;;;;;;;;;;;;;;;;;;5146056;28;19930;-57
2024/01/14 07:22:40;;;;;;;;;;;;;;;;;;5160648;28;19977;-57
2024/01/14 07:25:10;;;;;;;;;;;;;;;;;;5160799;28;20381;-57
2024/01/14 07:27:41;;;;;;;;;;;;;;;;;;5162681;28;19921;-57
2024/01/14 07:30:12;;;;;;;;;;;;;;;;;;5161907;28;20385;-57
2024/01/14 07:32:45;;;;;;;;;;;;;;;;;;5164684;28;20012;-57
2024/01/14 07:35:16;;;;;;;;;;;;;;;;;;5144568;28;20382;-57
2024/01/14 07:37:47;;;;;;;;;;;;;;;;;;5170834;28;19929;-59
2024/01/14 07:40:18;;;;;;;;;;;;;;;;;;5143926;28;20254;-58
2024/01/14 07:42:49;;;;;;;;;;;;;;;;;;5163859;28;20013;-59
2024/01/14 07:45:20;;;;;;;;;;;;;;;;;;5160248;28;19980;-59
2024/01/14 07:47:51;;;;;;;;;;;;;;;;;;5161217;28;20373;-59
2024/01/14 07:50:22;;;;;;;;;;;;;;;;;;5164591;28;19929;-60
2024/01/14 07:52:53;;;;;;;;;;;;;;;;;;5147250;28;19982;-58
2024/01/14 07:55:24;;;;;;;;;;;;;;;;;;5151725;28;20432;-58
2024/01/14 07:57:57;;;;;;;;;;;;;;;;;;5166690;28;19926;-57
2024/01/14 08:00:28;;;;;;;;;;;;;;;;;;5161801;28;19921;-57
2024/01/14 08:02:59;;;;;;;;;;;;;;;;;;5160531;28;19949;-57
2024/01/14 08:05:30;;;;;;;;;;;;;;;;;;5145147;28;19984;-56
2024/01/14 08:08:00;;;;;;;;;;;;;;;;;;5152128;28;19926;-59
2024/01/14 08:10:32;;;;;;;;;;;;;;;;;;5159322;28;20000;-58
2024/01/14 08:13:03;;;;;;;;;;;;;;;;;;5149661;28;19930;-58
2024/01/14 08:15:34;;;;;;;;;;;;;;;;;;5159460;28;19977;-58
2024/01/14 08:18:04;;;;;;;;;;;;;;;;;;5141536;28;20334;-58
2024/01/14 08:20:35;;;;;;;;;;;;;;;;;;5156764;28;19922;-59
2024/01/14 08:23:06;;;;;;;;;;;;;;;;;;5160178;28;19930;-58
2024/01/14 08:25:37;;;;;;;;;;;;;;;;;;5147048;28;19929;-59
2024/01/14 08:28:08;;;;;;;;;;;;;;;;;;5143669;28;19961;-57
2024/01/14 08:30:39;;;;;;;;;;;;;;;;;;5162058;28;20700;-59
2024/01/14 08:33:10;;;;;;;;;;;;;;;;;;5145853;28;19930;-59
2024/01/14 08:35:41;;;;;;;;;;;;;;;;;;5160788;28;19922;-60
2024/01/14 08:38:12;;;;;;;;;;;;;;;;;;5159726;28;19977;-60
2024/01/14 08:40:43;;;;;;;;;;;;;;;;;;5143507;28;19942;-59
2024/01/14 08:43:15;;;;;;;;;;;;;;;;;;5159727;28;19933;-60
2024/01/14 08:45:46;;;;;;;;;;;;;;;;;;5145413;28;20380;-59
2024/01/14 08:48:17;;;;;;;;;;;;;;;;;;5166451;28;19933;-59
2024/01/14 08:50:48;;;;;;;;;;;;;;;;;;5159633;28;19926;-59
2024/01/14 08:53:19;;;;;;;;;;;;;;;;;;5143248;28;19952;-60
2024/01/14 08:55:50;;;;;;;;;;;;;;;;;;5145655;28;20454;-60
2024/01/14 08:58:21;;;;;;;;;;;;;;;;;;5159620;28;19922;-59
2024/01/14 09:00:54;;;;;;;;;;;;;;;;;;5141190;28;19940;-61
2024/01/14 09:03:26;;;;;;;;;;;;;;;;;;5152133;28;19945;-60
2024/01/14 09:05:57;;;;;;;;;;;;;;;;;;5168980;28;19934;-61
2024/01/14 09:08:28;;;;;;;;;;;;;;;;;;5161639;28;19926;-61
2024/01/14 09:10:59;;;;;;;;;;;;;;;;;;5158881;28;19969;-60
2024/01/14 09:13:30;;;;;;;;;;;;;;;;;;5158486;28;20362;-61
2024/01/14 09:16:01;;;;;;;;;;;;;;;;;;5142955;28;19966;-60
2024/01/14 09:18:32;;;;;;;;;;;;;;;;;;5160244;28;19969;-60
2024/01/14 09:21:03;;;;;;;;;;;;;;;;;;5167557;28;20331;-61
2024/01/14 09:23:34;;;;;;;;;;;;;;;;;;5158826;28;19929;-59
2024/01/14 09:26:05;;;;;;;;;;;;;;;;;;5130782;28;20386;-59
2024/01/14 09:28:36;;;;;;;;;;;;;;;;;;5139166;28;19925;-59
2024/01/14 09:31:07;;;;;;;;;;;;;;;;;;5160187;28;19926;-58
2024/01/14 09:33:38;;;;;;;;;;;;;;;;;;5144798;28;19926;-61
2024/01/14 09:36:09;;;;;;;;;;;;;;;;;;5162811;28;19937;-58
2024/01/14 09:38:40;;;;;;;;;;;;;;;;;;5143241;28;19925;-58
2024/01/14 09:41:11;;;;;;;;;;;;;;;;;;5170816;28;19923;-60
2024/01/14 09:43:42;;;;;;;;;;;;;;;;;;5159677;28;19922;-61
2024/01/14 09:46:13;;;;;;;;;;;;;;;;;;5140948;28;19921;-60
2024/01/14 09:48:44;;;;;;;;;;;;;;;;;;5158317;28;20376;-60
2024/01/14 09:51:15;;;;;;;;;;;;;;;;;;5144447;28;19926;-60
2024/01/14 09:53:46;;;;;;;;;;;;;;;;;;5158322;28;19922;-60
2024/01/14 09:56:17;;;;;;;;;;;;;;;;;;5122165;29;19922;-58
2024/01/14 09:58:48;;;;;;;;;;;;;;;;;;5146396;28;19928;-57
2024/01/14 10:01:19;;;;;;;;;;;;;;;;;;5158635;28;19934;-59
2024/01/14 10:03:50;;;;;;;;;;;;;;;;;;5164047;28;20345;-58
2024/01/14 10:06:21;;;;;;;;;;;;;;;;;;5172992;28;20021;-59
2024/01/14 10:08:52;;;;;;;;;;;;;;;;;;5162745;28;19968;-56
2024/01/14 10:11:23;;;;;;;;;;;;;;;;;;5145660;28;19981;-59
2024/01/14 10:13:54;;;;;;;;;;;;;;;;;;5166590;28;20025;-60
2024/01/14 10:16:25;;;;;;;;;;;;;;;;;;5161564;28;20004;-62
2024/01/14 10:18:56;;;;;;;;;;;;;;;;;;5159574;28;20437;-59
2024/01/14 10:21:28;;;;;;;;;;;;;;;;;;5159213;28;20020;-59
2024/01/14 10:23:58;;;;;;;;;;;;;;;;;;5161802;28;19922;-59
2024/01/14 10:26:29;;;;;;;;;;;;;;;;;;5159050;28;20384;-58
2024/01/14 10:29:02;;;;;;;;;;;;;;;;;;5158948;28;19964;-60
2024/01/14 10:31:33;;;;;;;;;;;;;;;;;;5158377;28;19930;-60
2024/01/14 10:34:04;;;;;;;;;;;;;;;;;;5161174;28;19977;-58
2024/01/14 10:36:35;;;;;;;;;;;;;;;;;;5154092;28;20286;-60
2024/01/14 10:39:10;;;;;;;;;;;;;;;;;;5163878;28;19981;-60
2024/01/14 10:41:41;;;;;;;;;;;;;;;;;;5162371;28;19922;-61
2024/01/14 10:44:12;;;;;;;;;;;;;;;;;;5146745;28;19926;-61
2024/01/14 10:46:47;;;;;;;;;;;;;;;;;;5172137;28;20282;-60
2024/01/14 10:49:18;;;;;;;;;;;;;;;;;;5146609;28;20262;-61
2024/01/14 10:51:49;;;;;;;;;;;;;;;;;;5162097;28;19927;-59
2024/01/14 10:54:20;;;;;;;;;;;;;;;;;;5164589;28;19969;-63
2024/01/14 10:56:52;;;;;;;;;;;;;;;;;;5160817;28;20016;-61
2024/01/14 10:59:23;;;;;;;;;;;;;;;;;;5165802;28;19930;-61
2024/01/14 11:01:57;;;;;;;;;;;;;;;;;;5161088;28;19962;-58
2024/01/14 11:04:31;;;;;;;;;;;;;;;;;;5162071;28;19922;-60
2024/01/14 11:07:02;;;;;;;;;;;;;;;;;;5172941;28;19928;-59
2024/01/14 11:09:33;;;;;;;;;;;;;;;;;;5163617;28;20001;-60
2024/01/14 11:12:04;;;;;;;;;;;;;;;;;;5147637;28;19930;-60
2024/01/14 11:14:35;;;;;;;;;;;;;;;;;;5135965;28;19965;-59
2024/01/14 11:17:06;;;;;;;;;;;;;;;;;;5150628;28;19980;-57
2024/01/14 11:19:38;;;;;;;;;;;;;;;;;;5168069;28;19922;-58
2024/01/14 11:22:12;;;;;;;;;;;;;;;;;;5161078;28;19922;-59
2024/01/14 11:24:43;;;;;;;;;;;;;;;;;;5160926;28;19926;-60
2024/01/14 11:27:14;;;;;;;;;;;;;;;;;;5146087;28;20261;-59
2024/01/14 11:29:45;;;;;;;;;;;;;;;;;;5162142;28;19922;-59
2024/01/14 11:32:19;;;;;;;;;;;;;;;;;;5165086;28;20040;-61
2024/01/14 11:34:50;;;;;;;;;;;;;;;;;;5144676;28;19977;-61
2024/01/14 11:37:21;;;;;;;;;;;;;;;;;;5160951;28;19929;-60
2024/01/14 11:39:53;;;;;;;;;;;;;;;;;;5146826;28;19936;-61
2024/01/14 11:42:24;;;;;;;;;;;;;;;;;;5158749;28;19930;-60
2024/01/14 11:44:55;;;;;;;;;;;;;;;;;;5162962;28;19961;-60
2024/01/14 11:47:26;;;;;;;;;;;;;;;;;;5160716;28;19976;-60
2024/01/14 11:49:57;;;;;;;;;;;;;;;;;;5159987;28;19922;-60
2024/01/14 11:52:28;;;;;;;;;;;;;;;;;;5160627;28;19949;-61
2024/01/14 11:54:59;;;;;;;;;;;;;;;;;;5144353;28;20049;-58
2024/01/14 11:57:30;;;;;;;;;;;;;;;;;;5143887;28;20008;-59
2024/01/14 12:00:01;;;;;;;;;;;;;;;;;;5159979;28;20021;-58
2024/01/14 12:02:32;;;;;;;;;;;;;;;;;;5143285;28;19925;-59
2024/01/14 12:05:03;;;;;;;;;;;;;;;;;;5147556;28;19927;-57
2024/01/14 12:07:34;;;;;;;;;;;;;;;;;;5120773;28;19973;-58
2024/01/14 12:10:05;;;;;;;;;;;;;;;;;;5144555;28;20010;-57
2024/01/14 12:12:36;;;;;;;;;;;;;;;;;;5160129;28;19936;-58
2024/01/14 12:15:07;;;;;;;;;;;;;;;;;;5144504;28;20340;-59
2024/01/14 12:17:38;;;;;;;;;;;;;;;;;;5160353;28;19922;-57
2024/01/14 12:20:10;;;;;;;;;;;;;;;;;;5145276;28;19961;-59
2024/01/14 12:22:41;;;;;;;;;;;;;;;;;;5160278;28;20308;-59
2024/01/14 12:25:12;;;;;;;;;;;;;;;;;;5160069;28;20009;-58
2024/01/14 12:27:43;;;;;;;;;;;;;;;;;;5159934;28;20012;-58
2024/01/14 12:30:14;;;;;;;;;;;;;;;;;;5160201;28;20445;-58
2024/01/14 12:32:45;;;;;;;;;;;;;;;;;;5159737;28;19980;-58
2024/01/14 12:35:15;;;;;;;;;;;;;;;;;;5160043;28;19922;-58
2024/01/14 12:37:46;;;;;;;;;;;;;;;;;;5139707;28;20365;-58
2024/01/14 12:40:18;;;;;;;;;;;;;;;;;;5160140;28;20250;-59
2024/01/14 12:42:49;;;;;;;;;;;;;;;;;;5155795;28;19968;-59
2024/01/14 12:45:20;;;;;;;;;;;;;;;;;;5160057;28;19929;-60
2024/01/14 12:47:51;;;;;;;;;;;;;;;;;;5159954;28;19929;-58
2024/01/14 12:50:22;;;;;;;;;;;;;;;;;;5124033;28;20402;-57
2024/01/14 12:52:53;;;;;;;;;;;;;;;;;;5158590;28;19937;-57
2024/01/14 12:55:29;;;;;;;;;;;;;;;;;;5158030;28;20381;-58
2024/01/14 12:58:00;;;;;;;;;;;;;;;;;;5107131;29;19929;-57
2024/01/14 13:00:31;;;;;;;;;;;;;;;;;;5106205;29;20015;-57
2024/01/14 13:03:02;;;;;;;;;;;;;;;;;;5106291;29;19977;-57
2024/01/14 13:05:33;;;;;;;;;;;;;;;;;;5158144;28;20389;-57
2024/01/14 13:08:04;;;;;;;;;;;;;;;;;;5131153;28;19926;-58
2024/01/14 13:10:35;;;;;;;;;;;;;;;;;;5164705;28;19977;-56
2024/01/14 13:13:06;;;;;;;;;;;;;;;;;;5170800;28;20005;-59
2024/01/14 13:15:37;;;;;;;;;;;;;;;;;;5151909;28;19922;-58
2024/01/14 13:18:08;;;;;;;;;;;;;;;;;;5159884;28;19922;-58
2024/01/14 13:20:39;;;;;;;;;;;;;;;;;;5164560;28;19925;-56
2024/01/14 13:23:10;;;;;;;;;;;;;;;;;;5165244;28;19977;-57
2024/01/14 13:25:42;;;;;;;;;;;;;;;;;;5161260;28;20004;-57
2024/01/14 13:28:13;;;;;;;;;;;;;;;;;;5152480;28;20417;-58
2024/01/14 13:30:44;;;;;;;;;;;;;;;;;;5151491;28;20001;-58
2024/01/14 13:33:15;;;;;;;;;;;;;;;;;;5169117;28;20749;-58
2024/01/14 13:35:46;;;;;;;;;;;;;;;;;;5132503;28;20033;-58
2024/01/14 13:38:17;;;;;;;;;;;;;;;;;;5138633;28;20065;-58
2024/01/14 13:40:49;;;;;;;;;;;;;;;;;;5158377;28;20409;-57
2024/01/14 13:43:20;;;;;;;;;;;;;;;;;;5160700;28;20006;-58
2024/01/14 13:45:51;;;;;;;;;;;;;;;;;;5154418;28;20318;-58
2024/01/14 13:48:22;;;;;;;;;;;;;;;;;;5148624;28;19930;-59
2024/01/14 13:50:53;;;;;;;;;;;;;;;;;;5160475;28;20353;-60
2024/01/14 13:53:24;;;;;;;;;;;;;;;;;;5165085;28;19930;-59
2024/01/14 13:55:55;;;;;;;;;;;;;;;;;;5158029;28;20393;-59
2024/01/14 13:58:26;;;;;;;;;;;;;;;;;;5158143;28;19926;-57
2024/01/14 14:00:57;;;;;;;;;;;;;;;;;;5157749;28;19957;-59
2024/01/14 14:03:28;;;;;;;;;;;;;;;;;;5164930;28;20356;-58
2024/01/14 14:05:59;;;;;;;;;;;;;;;;;;5169093;28;19932;-59
2024/01/14 14:08:31;;;;;;;;;;;;;;;;;;5135005;28;20297;-59
2024/01/14 14:11:01;;;;;;;;;;;;;;;;;;5170390;28;20361;-59
2024/01/14 14:13:33;;;;;;;;;;;;;;;;;;5160984;28;19973;-58
2024/01/14 14:16:04;;;;;;;;;;;;;;;;;;5159386;28;20012;-58
2024/01/14 14:18:35;;;;;;;;;;;;;;;;;;5166567;28;19925;-58
2024/01/14 14:21:05;;;;;;;;;;;;;;;;;;5159881;28;19929;-58
2024/01/14 14:23:38;;;;;;;;;;;;;;;;;;5158691;28;20290;-57
2024/01/14 14:26:09;;;;;;;;;;;;;;;;;;5144548;28;19929;-58
2024/01/14 14:28:40;;;;;;;;;;;;;;;;;;5159004;28;19926;-57
2024/01/14 14:31:11;;;;;;;;;;;;;;;;;;5161407;28;19926;-56
2024/01/14 14:33:42;;;;;;;;;;;;;;;;;;5145917;28;19976;-58
2024/01/14 14:36:12;;;;;;;;;;;;;;;;;;5152905;28;20378;-57
2024/01/14 14:38:43;;;;;;;;;;;;;;;;;;5133739;28;19946;-58
2024/01/14 14:41:15;;;;;;;;;;;;;;;;;;5140994;28;20025;-57
2024/01/14 14:43:46;;;;;;;;;;;;;;;;;;5140768;28;19922;-59
2024/01/14 14:46:17;;;;;;;;;;;;;;;;;;5157746;28;19929;-56
2024/01/14 14:48:48;;;;;;;;;;;;;;;;;;5158488;28;19984;-57
2024/01/14 14:51:19;;;;;;;;;;;;;;;;;;5158270;28;19928;-56
2024/01/14 14:53:50;;;;;;;;;;;;;;;;;;5158117;28;20317;-55
2024/01/14 14:56:22;;;;;;;;;;;;;;;;;;5155819;28;19978;-56
2024/01/14 14:58:53;;;;;;;;;;;;;;;;;;5156499;28;20012;-56
2024/01/14 15:01:24;;;;;;;;;;;;;;;;;;5159139;28;20005;-56
2024/01/14 15:03:55;;;;;;;;;;;;;;;;;;5158491;28;20274;-56
2024/01/14 15:06:26;;;;;;;;;;;;;;;;;;5137830;28;19981;-56
2024/01/14 15:08:57;;;;;;;;;;;;;;;;;;5154992;28;20458;-59
2024/01/14 15:11:28;;;;;;;;;;;;;;;;;;5171088;28;19926;-59
2024/01/14 15:13:59;;;;;;;;;;;;;;;;;;5155976;28;19922;-57
2024/01/14 15:16:30;;;;;;;;;;;;;;;;;;5160905;28;19918;-57
2024/01/14 15:19:01;;;;;;;;;;;;;;;;;;5155333;28;19981;-57
2024/01/14 15:21:32;;;;;;;;;;;;;;;;;;5157853;28;20021;-58
2024/01/14 15:24:03;;;;;;;;;;;;;;;;;;5144327;28;20404;-58
2024/01/14 15:26:34;;;;;;;;;;;;;;;;;;5159263;28;19937;-57
2024/01/14 15:29:04;;;;;;;;;;;;;;;;;;5143876;28;19930;-56
2024/01/14 15:31:35;;;;;;;;;;;;;;;;;;5114593;28;19930;-58
2024/01/14 15:34:09;;;;;;;;;;;;;;;;;;5143634;28;20059;-56
2024/01/14 15:36:40;;;;;;;;;;;;;;;;;;5160252;28;19937;-57
2024/01/14 15:39:11;;;;;;;;;;;;;;;;;;5143369;28;19925;-57
2024/01/14 15:41:42;;;;;;;;;;;;;;;;;;5160597;28;19977;-56
2024/01/14 15:44:14;;;;;;;;;;;;;;;;;;5162078;28;20024;-58
2024/01/14 15:46:45;;;;;;;;;;;;;;;;;;5160067;28;19957;-57
2024/01/14 15:49:16;;;;;;;;;;;;;;;;;;5164470;28;19929;-57
2024/01/14 15:51:46;;;;;;;;;;;;;;;;;;5164059;28;20535;-57
2024/01/14 15:54:18;;;;;;;;;;;;;;;;;;5161271;28;19983;-58
2024/01/14 15:56:49;;;;;;;;;;;;;;;;;;5140231;28;19960;-57
2024/01/14 15:59:20;;;;;;;;;;;;;;;;;;5159428;28;19929;-58
2024/01/14 16:01:51;;;;;;;;;;;;;;;;;;5159973;28;20321;-57
2024/01/14 16:04:22;;;;;;;;;;;;;;;;;;5159919;28;20017;-57
2024/01/14 16:06:53;;;;;;;;;;;;;;;;;;5161515;28;19929;-58
2024/01/14 16:09:24;;;;;;;;;;;;;;;;;;5162483;28;19933;-58
2024/01/14 16:11:55;;;;;;;;;;;;;;;;;;5166892;28;20613;-58
2024/01/14 16:14:26;;;;;;;;;;;;;;;;;;5166607;28;19929;-59
2024/01/14 16:16:57;;;;;;;;;;;;;;;;;;5165223;28;19926;-58
2024/01/14 16:19:28;;;;;;;;;;;;;;;;;;5143283;28;19987;-58
2024/01/14 16:21:59;;;;;;;;;;;;;;;;;;5160176;28;19930;-58
2024/01/14 16:24:30;;;;;;;;;;;;;;;;;;5144530;28;19922;-58
2024/01/14 16:27:01;;;;;;;;;;;;;;;;;;5159706;28;19980;-57
2024/01/14 16:29:32;;;;;;;;;;;;;;;;;;5161109;28;20442;-57
2024/01/14 16:32:03;;;;;;;;;;;;;;;;;;5157784;28;20293;-56
2024/01/14 16:34:34;;;;;;;;;;;;;;;;;;5140745;28;20293;-57
2024/01/14 16:37:05;;;;;;;;;;;;;;;;;;5159396;28;19952;-57
2024/01/14 16:39:36;;;;;;;;;;;;;;;;;;5161335;28;19922;-58
2024/01/14 16:42:07;;;;;;;;;;;;;;;;;;5158964;28;20301;-58
2024/01/14 16:44:38;;;;;;;;;;;;;;;;;;5146121;28;19982;-58
2024/01/14 16:47:09;;;;;;;;;;;;;;;;;;5122036;28;19933;-57
2024/01/14 16:49:40;;;;;;;;;;;;;;;;;;5157945;28;19988;-58
2024/01/14 16:52:11;;;;;;;;;;;;;;;;;;5162181;28;20012;-59
2024/01/14 16:54:45;;;;;;;;;;;;;;;;;;5160794;28;19921;-57
2024/01/14 16:57:17;;;;;;;;;;;;;;;;;;5158196;28;20365;-57
2024/01/14 16:59:58;;;;;;;;;;;;;;;;;;5155963;28;20460;-59
2024/01/14 17:02:29;;;;;;;;;;;;;;;;;;5146317;28;19922;-58
2024/01/14 17:05:00;;;;;;;;;;;;;;;;;;5157698;28;19932;-57
2024/01/14 17:07:31;;;;;;;;;;;;;;;;;;5163458;28;19925;-58
2024/01/14 17:10:03;;;;;;;;;;;;;;;;;;5158133;28;20444;-58
2024/01/14 17:12:34;;;;;;;;;;;;;;;;;;5163520;28;19926;-58